Turner, Minnesota
Current Conditions -  °F | °C
As of 6:27 PM on Friday 21 Nov 2014 (Local Time) from KHZX Reporting Station
Scattered Clouds Scattered Clouds  
Wind Chill: 20°   Ceiling: Unl
Heat Index: 30°   Visibility: 10mi
Dew Point: 23°   Wind: 14mph
Humidity: 75%   Direction: 190°S
Pressure: 29.82"   Gusts: 21mph
Location:  46.7232°N, 93.3159°W
Report Text: KHZX 220027Z AUTO 19012G18KT 10SM SCT120 M01/M05 A2982 RMK AO2
Loading
Personal Weather Stations






























Interactive Weather Map New forecast layout! Learn more

10-Day Weather Forecast

Advertisements
Track Severe Weather on mobile